Highland, NY (12528)

9:54 AM EDT on September 01, 2014 (GMT -0400)
Town of Lloyd | Change Station
CLOSE
Current Station
Personal Weather Station
Location: Highland, NY
Elevation: 315 ft
Nearby Weather Stations

Elev 315 ft 41.72 °N, 73.97 °W | Updated 13 seconds ago

Mostly Cloudy
Mostly Cloudy
77.5 °F
Feels Like 79 °F
N
0.0
Wind Variable Wind from East
Gusts 1.6 mph

Today
High -- | Low -- °F
--% Chance of Precip.
Yesterday
High -- | Low -- °F
Precip. -- in
6:21 AM 7:29 PM
Waxing Crescent, 41% visible
Pressure 29.98 in
Visibility 10.0 miles
Clouds Scattered Clouds 1500 ft
Heat Index 79 °F
Dew Point 74 °F
Humidity 90%
Rainfall 0.00 in
Snow Depth Not available.
UV 2 out of 12
Pollen 5.10 out of 12
PM2.5 Good
Flu Activity Not available.
METAR KPOU 011253Z COR VRB03KT 10SM SCT015 24/21 A2999 RMK AO2 SLP151 T02390211 $

More Conditions Fewer Conditions

Pressure 29.98 in
Visibility 10.0 miles
Clouds Scattered Clouds 1500 ft
Heat Index 79 °F
Dew Point 74 °F
Humidity 90%
Rainfall 0.00 in
Snow Depth Not available.
UV 2 out of 12
Pollen 5.10 out of 12
PM2.5 Good
Flu Activity Not available.
METAR KPOU 011253Z COR VRB03KT 10SM SCT015 24/21 A2999 RMK AO2 SLP151 T02390211 $

More Conditions Fewer Conditions

10-Day Weather Forecast

Almanac

Astronomy

Sep. 01, 2014 Rise Set
Actual Time 6:21 AM EDT 7:29 PM EDT
Civil Twilight 5:53 AM EDT 7:57 PM EDT
Nautical Twilight 5:19 AM EDT 8:31 PM EDT
Astronomical Twilight 4:43 AM EDT 9:07 PM EDT
Moon 1:10 PM EDT 11:22 PM EDT
Length of Visible Light 14h 04m
Length of Day
13h 07m
Tomorrow will be 2m 41s shorter.
Waxing Crescent, 41% of the Moon is Illuminated
Today
Waxing Crescent
Sep 2
First Quarter
Sep 8
Full
Sep 15
Last Quarter
Sep 24
New

Today's Extremes

State Highs State Lows

Community

WunderPhotos

Upload Photos

1,749,222 photos uploaded!

Nearby

Air Quality

  Air Quality AQ Index Pollutant
Yesterday Good
PM2.5
Yesterday Good
OZONE
Current Good
PM2.5
Monday Moderate
OZONE
Monday Moderate
PM2.5
Tuesday Moderate
OZONE
Tuesday Moderate
PM2.5

Snow Depth

Station Depth Elevation
No new snow has been reported.

Earthquake Activity

City Distance Mag. Time & Date
No recent earthquake activity has been reported nearby.
Minimum magnitude displayed is 2.5.

Coastal Water Temperatures

Place Temperature
No Stations Reporting

Nearby Weather Stations